EGNM/LBA METAR and TAF weather

Enter ICAO airport designator
Station Type Date Time Source
EGNM METAR 2019/02/17 08:20 UTC NOAA

EGNM 170820Z 15009KT 5000 SCT005 06/06 Q1010


Station Type Date Time Source
EGNM Decoded METAR 2019/02/17 08:20 UTC NOAA

Leeds And Bradford, United Kingdom (EGNM) 53-52N 001-39W
Feb 17, 2019 - 03:20 AM EST / 2019.02.17 0820 UTC
Wind: from the SSE (150 degrees) at 10 MPH (9 KT):0
Visibility: 3 mile(s):0
Sky conditions: partly cloudy
Temperature: 42 F (6 C)
Dew Point: 42 F (6 C)
Relative Humidity: 100%
Pressure (altimeter): 29.83 in. Hg (1010 hPa)
ob: EGNM 170820Z 15009KT 5000 SCT005 06/06 Q1010
cycle: 8

Station Type Date Time Source
EGNM TAF 2019/02/17 06:06 UTC NOAA

TAF TAF EGNM 170500Z 1706/1806 19009KT CAVOK PROB30 1706/1709 13010KT 0200 FG BKN001 PROB30
TEMPO 1712/1716 8000 BKN014 PROB30
TEMPO 1800/1806 21015G25KT BKN014


Example: see airport list